createdAt,value
2022-12-18T00:00:49.177Z,11.64
2022-12-18T00:03:35.359Z,11.63
2022-12-18T00:06:19.612Z,11.23
2022-12-18T00:09:05.263Z,11.33
2022-12-18T00:11:49.310Z,11.64
2022-12-18T00:14:33.860Z,11.43
2022-12-18T00:17:17.947Z,10.80
2022-12-18T00:20:03.518Z,11.28
2022-12-18T00:22:47.682Z,11.14
2022-12-18T00:25:31.589Z,11.26
2022-12-18T00:28:15.626Z,10.92
2022-12-18T00:31:03.495Z,11.19
2022-12-18T00:33:47.626Z,11.21
2022-12-18T00:36:37.005Z,11.11
2022-12-18T00:39:20.994Z,10.95
2022-12-18T00:42:27.716Z,10.95
2022-12-18T00:45:13.206Z,11.01
2022-12-18T00:47:58.207Z,10.51
2022-12-18T00:50:42.294Z,10.44
2022-12-18T00:53:27.873Z,10.56
2022-12-18T00:56:14.662Z,10.81
2022-12-18T00:58:58.637Z,10.54
2022-12-18T01:01:42.773Z,10.40
2022-12-18T01:04:26.922Z,10.45
2022-12-18T01:07:10.920Z,10.03
2022-12-18T01:09:56.449Z,10.04
2022-12-18T01:12:40.852Z,10.14
2022-12-18T01:15:24.807Z,9.91
2022-12-18T01:18:09.505Z,10.24
2022-12-18T01:20:53.520Z,10.28
2022-12-18T01:23:38.046Z,10.58
2022-12-18T01:26:23.694Z,10.34
2022-12-18T01:29:08.156Z,10.40
2022-12-18T01:31:52.588Z,10.82
2022-12-18T01:34:37.718Z,10.52
2022-12-18T01:37:21.467Z,10.56
2022-12-18T01:40:07.678Z,10.66
2022-12-18T01:42:53.766Z,10.63
2022-12-18T01:45:37.776Z,10.90
2022-12-18T01:48:21.865Z,10.76
2022-12-18T01:51:06.593Z,10.92
2022-12-18T01:53:50.836Z,10.77
2022-12-18T01:56:34.749Z,11.25
2022-12-18T01:59:20.097Z,11.26
2022-12-18T02:02:05.358Z,11.23
2022-12-18T02:04:49.681Z,10.82
2022-12-18T02:07:44.896Z,11.14
2022-12-18T02:10:33.805Z,10.87
2022-12-18T02:13:23.199Z,11.06
2022-12-18T02:16:34.535Z,10.88
2022-12-18T02:19:39.940Z,11.30
2022-12-18T02:22:31.867Z,11.03
2022-12-18T02:25:25.114Z,10.95
2022-12-18T02:28:15.895Z,11.21
2022-12-18T02:31:03.941Z,10.91
2022-12-18T02:33:49.399Z,10.88
2022-12-18T02:36:34.735Z,10.90
2022-12-18T02:39:19.864Z,10.93
2022-12-18T02:42:14.713Z,10.56
2022-12-18T02:44:59.948Z,10.56
2022-12-18T02:47:51.803Z,10.64
2022-12-18T02:50:39.801Z,10.72
2022-12-18T02:53:33.934Z,10.82
2022-12-18T02:56:22.232Z,11.06
2022-12-18T02:59:11.856Z,10.93
2022-12-18T03:02:07.053Z,10.83
2022-12-18T03:05:00.899Z,11.05
2022-12-18T03:07:49.154Z,11.07
2022-12-18T03:10:37.907Z,10.93
2022-12-18T03:13:28.072Z,10.88
2022-12-18T03:16:16.560Z,11.13
2022-12-18T03:19:06.472Z,10.79
2022-12-18T03:21:55.710Z,10.75
2022-12-18T03:24:41.177Z,10.89
2022-12-18T03:27:26.973Z,10.70
2022-12-18T03:30:15.696Z,10.42
2022-12-18T03:33:08.191Z,9.42
2022-12-18T03:35:55.027Z,10.22
2022-12-18T03:38:40.261Z,9.98
2022-12-18T03:41:31.875Z,10.16
2022-12-18T03:44:47.188Z,9.97
2022-12-18T03:47:37.951Z,9.47
2022-12-18T03:50:29.982Z,9.94
2022-12-18T03:53:25.291Z,9.73
2022-12-18T03:56:11.965Z,9.69
2022-12-18T03:58:59.908Z,9.50
2022-12-18T04:01:49.737Z,9.13
2022-12-18T04:04:35.608Z,9.43
2022-12-18T04:07:22.320Z,9.09
2022-12-18T04:10:13.319Z,8.99
2022-12-18T04:13:00.158Z,8.88
2022-12-18T04:15:44.999Z,8.92
2022-12-18T04:18:32.488Z,8.90
2022-12-18T04:21:18.177Z,8.75
2022-12-18T04:24:03.853Z,8.50
2022-12-18T04:26:49.069Z,8.63
2022-12-18T04:29:35.831Z,8.81
2022-12-18T04:32:19.603Z,9.23
2022-12-18T04:35:07.715Z,8.85
2022-12-18T04:37:52.179Z,8.42
2022-12-18T04:40:36.093Z,8.54
2022-12-18T04:43:23.911Z,8.56
2022-12-18T04:46:09.597Z,8.46
2022-12-18T04:48:53.728Z,7.07
2022-12-18T04:51:37.457Z,8.55
2022-12-18T04:54:21.290Z,8.43
2022-12-18T04:57:05.035Z,8.47
2022-12-18T04:59:50.201Z,8.42
2022-12-18T05:02:34.157Z,8.08
2022-12-18T05:05:18.473Z,8.65
2022-12-18T05:08:02.236Z,8.38
2022-12-18T05:10:46.516Z,8.59
2022-12-18T05:13:30.698Z,7.87
2022-12-18T05:16:16.250Z,7.77
2022-12-18T05:19:00.020Z,8.08
2022-12-18T05:21:43.682Z,7.87
2022-12-18T05:24:28.054Z,7.42
2022-12-18T05:27:11.783Z,6.16
2022-12-18T05:29:55.540Z,7.18
2022-12-18T05:32:41.148Z,7.55
2022-12-18T05:35:24.935Z,7.44
2022-12-18T05:38:08.698Z,7.46
2022-12-18T05:40:53.109Z,7.28
2022-12-18T05:43:38.539Z,7.77
2022-12-18T05:46:22.546Z,7.20
2022-12-18T05:49:07.757Z,6.99
2022-12-18T05:51:51.593Z,7.52
2022-12-18T05:54:35.486Z,7.47
2022-12-18T05:57:19.400Z,7.51
2022-12-18T06:00:03.325Z,7.64
2022-12-18T06:02:56.105Z,7.23
2022-12-18T06:05:43.219Z,7.47
2022-12-18T06:08:27.018Z,7.68
2022-12-18T06:11:10.792Z,7.07
2022-12-18T06:13:58.695Z,6.96
2022-12-18T06:16:43.163Z,6.92
2022-12-18T06:19:26.961Z,6.80
2022-12-18T06:22:12.102Z,6.68
2022-12-18T06:24:56.029Z,6.35
2022-12-18T06:27:39.782Z,6.41
2022-12-18T06:30:23.691Z,6.63
2022-12-18T06:33:07.807Z,5.89
2022-12-18T06:35:52.787Z,6.61
2022-12-18T06:38:42.449Z,7.19
2022-12-18T06:41:26.573Z,7.17
2022-12-18T06:44:10.349Z,6.77
2022-12-18T06:46:54.957Z,6.86
2022-12-18T06:49:38.732Z,6.87
2022-12-18T06:52:22.533Z,6.80
2022-12-18T06:55:09.073Z,6.77
2022-12-18T06:57:52.944Z,6.75
2022-12-18T07:00:37.100Z,6.66
2022-12-18T07:03:21.059Z,6.99
2022-12-18T07:06:05.512Z,6.02
2022-12-18T07:08:50.221Z,6.79
2022-12-18T07:11:36.311Z,6.83
2022-12-18T07:14:20.263Z,6.63
2022-12-18T07:17:04.229Z,6.06
2022-12-18T07:19:48.026Z,7.37
2022-12-18T07:22:31.771Z,6.46
2022-12-18T07:25:15.468Z,6.57
2022-12-18T07:28:00.623Z,6.63
2022-12-18T07:30:44.395Z,6.37
2022-12-18T07:33:28.257Z,6.14
2022-12-18T07:36:13.386Z,6.25
2022-12-18T07:38:57.225Z,6.92
2022-12-18T07:41:46.752Z,6.95
2022-12-18T07:44:34.664Z,6.31
2022-12-18T07:47:18.476Z,6.20
2022-12-18T07:50:02.244Z,6.06
2022-12-18T07:52:46.713Z,6.57
2022-12-18T07:55:47.918Z,6.23
2022-12-18T07:58:35.001Z,6.65
2022-12-18T08:01:20.234Z,6.94
2022-12-18T08:04:05.375Z,6.72
2022-12-18T08:06:49.216Z,7.06
2022-12-18T08:09:33.043Z,7.35
2022-12-18T08:12:16.881Z,7.34
2022-12-18T08:15:00.679Z,7.08
2022-12-18T08:17:45.785Z,6.98
2022-12-18T08:20:29.549Z,6.67
2022-12-18T08:23:13.361Z,6.76
2022-12-18T08:25:57.157Z,6.97
2022-12-18T08:28:41.075Z,6.95
2022-12-18T08:31:25.727Z,7.13
2022-12-18T08:34:11.209Z,6.62
2022-12-18T08:36:55.001Z,6.81
2022-12-18T08:39:38.808Z,6.50
2022-12-18T08:42:40.142Z,6.45
2022-12-18T08:45:23.943Z,6.44
2022-12-18T08:48:08.087Z,6.48
2022-12-18T08:50:58.487Z,6.30
2022-12-18T08:53:42.528Z,6.44
2022-12-18T08:56:26.795Z,6.57
2022-12-18T08:59:15.909Z,6.61
2022-12-18T09:02:03.240Z,6.16
2022-12-18T09:04:55.378Z,5.88
2022-12-18T09:07:42.518Z,6.07
2022-12-18T09:10:26.271Z,6.23
2022-12-18T09:13:10.078Z,6.20
2022-12-18T09:15:56.312Z,6.32
2022-12-18T09:18:40.330Z,6.31
2022-12-18T09:21:24.478Z,6.14
2022-12-18T09:24:15.406Z,6.63
2022-12-18T09:26:59.867Z,6.71
2022-12-18T09:29:43.588Z,6.82
2022-12-18T09:32:27.414Z,6.62
2022-12-18T09:35:11.151Z,6.59
2022-12-18T09:37:55.479Z,6.58
2022-12-18T09:40:45.962Z,6.67
2022-12-18T09:43:35.886Z,6.57
2022-12-18T09:46:26.516Z,6.37
2022-12-18T09:49:16.849Z,6.56
2022-12-18T09:52:07.060Z,6.91
2022-12-18T09:54:55.683Z,6.49
2022-12-18T09:57:47.510Z,6.37
2022-12-18T10:00:31.502Z,6.29
2022-12-18T10:03:17.309Z,6.46
2022-12-18T10:06:08.717Z,6.37
2022-12-18T10:09:01.035Z,6.69
2022-12-18T10:11:55.209Z,6.71
2022-12-18T10:14:50.188Z,6.85
2022-12-18T10:17:44.496Z,6.74
2022-12-18T10:20:34.264Z,6.91
2022-12-18T10:23:27.529Z,6.78
2022-12-18T10:26:13.728Z,6.81
2022-12-18T10:29:05.579Z,6.88
2022-12-18T10:31:51.052Z,6.62
2022-12-18T10:34:35.009Z,6.68
2022-12-18T10:37:21.147Z,6.87
2022-12-18T10:40:18.443Z,6.83
2022-12-18T10:43:07.379Z,7.18
2022-12-18T10:46:19.517Z,6.70
2022-12-18T10:49:04.975Z,6.80
2022-12-18T10:51:49.026Z,7.16
2022-12-18T10:54:34.153Z,7.22
2022-12-18T10:57:31.594Z,7.51
2022-12-18T11:00:26.215Z,7.09
2022-12-18T11:03:32.652Z,6.81
2022-12-18T11:06:19.847Z,6.85
2022-12-18T11:09:13.131Z,7.02
2022-12-18T11:12:00.317Z,6.83
2022-12-18T11:14:48.043Z,7.12
2022-12-18T11:17:34.697Z,7.04
2022-12-18T11:20:33.934Z,7.09
2022-12-18T11:23:21.375Z,6.95
2022-12-18T11:26:07.056Z,7.33
2022-12-18T11:28:53.839Z,7.43
2022-12-18T11:31:37.702Z,7.24
2022-12-18T11:34:29.764Z,7.16
2022-12-18T11:37:20.182Z,7.07
2022-12-18T11:40:13.902Z,6.20
2022-12-18T11:43:06.645Z,6.51
2022-12-18T11:45:56.382Z,7.51
2022-12-18T11:48:47.020Z,7.06
2022-12-18T11:51:37.213Z,7.28
2022-12-18T11:54:20.964Z,7.07
2022-12-18T11:57:18.628Z,7.27
2022-12-18T12:00:07.356Z,7.05
2022-12-18T12:03:27.968Z,6.83
2022-12-18T12:06:19.476Z,6.78
2022-12-18T12:09:15.112Z,6.88
2022-12-18T12:12:14.640Z,7.28
2022-12-18T12:15:12.473Z,6.91
2022-12-18T12:18:08.172Z,6.85
2022-12-18T12:21:05.292Z,7.07
2022-12-18T12:23:55.441Z,6.85
2022-12-18T12:26:47.356Z,6.67
2022-12-18T12:29:44.770Z,6.98
2022-12-18T12:32:48.512Z,7.17
2022-12-18T12:35:44.922Z,6.85
2022-12-18T12:38:33.700Z,6.71
2022-12-18T12:41:39.349Z,6.52
2022-12-18T12:44:28.418Z,6.47
2022-12-18T12:47:18.828Z,6.69
2022-12-18T12:50:08.014Z,6.50
2022-12-18T12:52:55.518Z,6.70
2022-12-18T12:55:41.272Z,7.11
2022-12-18T12:58:33.639Z,6.86
2022-12-18T13:01:27.585Z,7.35
2022-12-18T13:04:24.089Z,7.05
2022-12-18T13:07:14.896Z,6.84
2022-12-18T13:10:26.817Z,6.79
2022-12-18T13:13:11.677Z,6.66
2022-12-18T13:16:07.437Z,6.58
2022-12-18T13:18:52.465Z,6.54
2022-12-18T13:21:37.714Z,6.24
2022-12-18T13:24:27.464Z,6.22
2022-12-18T13:27:44.358Z,6.38
2022-12-18T13:30:49.436Z,6.51
2022-12-18T13:36:51.487Z,6.45
2022-12-18T13:39:36.941Z,6.41
2022-12-18T13:43:08.451Z,6.60
2022-12-18T13:46:03.075Z,6.71
2022-12-18T13:48:54.648Z,6.43
2022-12-18T13:51:42.907Z,6.49
2022-12-18T13:54:35.355Z,6.22
2022-12-18T13:57:30.883Z,6.33
2022-12-18T14:00:29.719Z,6.64
2022-12-18T14:03:27.294Z,6.51
2022-12-18T14:06:14.136Z,6.34
2022-12-18T14:09:00.690Z,6.39
2022-12-18T14:11:50.952Z,6.27
2022-12-18T14:14:35.926Z,6.16
2022-12-18T14:17:21.218Z,6.25
2022-12-18T14:20:14.982Z,6.21
2022-12-18T14:22:59.702Z,6.37
2022-12-18T14:25:48.578Z,6.12
2022-12-18T14:28:34.016Z,5.90
2022-12-18T14:31:22.430Z,6.10
2022-12-18T14:34:06.314Z,5.92
2022-12-18T14:36:57.013Z,6.04
2022-12-18T14:39:41.233Z,6.42
2022-12-18T14:42:29.243Z,6.18
2022-12-18T14:45:41.440Z,6.45
2022-12-18T14:48:38.380Z,5.35
2022-12-18T14:51:24.432Z,6.14
2022-12-18T14:54:19.274Z,5.93
2022-12-18T14:57:05.997Z,6.19
2022-12-18T14:59:49.949Z,5.88
2022-12-18T15:02:38.153Z,5.70
2022-12-18T15:05:26.851Z,5.97
2022-12-18T15:08:42.978Z,6.26
2022-12-18T15:11:36.057Z,5.81
2022-12-18T15:14:36.726Z,6.28
2022-12-18T15:17:24.133Z,5.97
2022-12-18T15:20:13.699Z,5.77
2022-12-18T15:22:57.583Z,6.11
2022-12-18T15:25:41.569Z,6.46
2022-12-18T15:28:29.547Z,5.86
2022-12-18T15:31:26.441Z,5.86
2022-12-18T15:34:22.732Z,5.83
2022-12-18T15:37:09.620Z,5.99
2022-12-18T15:39:53.588Z,5.96
2022-12-18T15:42:54.647Z,6.03
2022-12-18T15:45:38.537Z,5.76
2022-12-18T15:48:24.263Z,5.57
2022-12-18T15:51:16.898Z,5.77
2022-12-18T15:54:05.031Z,5.64
2022-12-18T15:57:06.502Z,5.89
2022-12-18T15:59:50.435Z,6.12
2022-12-18T16:02:34.537Z,6.47
2022-12-18T16:05:20.417Z,6.56
2022-12-18T16:08:04.528Z,6.56
2022-12-18T16:10:49.934Z,6.68
2022-12-18T16:13:34.186Z,6.82
2022-12-18T16:16:18.676Z,6.13
2022-12-18T16:19:02.531Z,6.13
2022-12-18T16:21:48.569Z,6.28
2022-12-18T16:24:37.292Z,6.24
2022-12-18T16:27:23.440Z,5.95
2022-12-18T16:30:08.993Z,6.17
2022-12-18T16:32:52.921Z,5.96
2022-12-18T16:35:38.316Z,5.74
2022-12-18T16:38:22.373Z,5.54
2022-12-18T16:41:36.554Z,5.46
2022-12-18T16:44:22.217Z,4.86
2022-12-18T16:47:06.260Z,4.30
2022-12-18T16:49:53.559Z,4.53
2022-12-18T16:52:41.148Z,4.59
2022-12-18T16:55:25.077Z,4.60
2022-12-18T16:58:09.040Z,4.48
2022-12-18T17:00:54.437Z,4.58
2022-12-18T17:03:38.928Z,4.20
2022-12-18T17:06:23.108Z,4.25
2022-12-18T17:09:09.283Z,4.40
2022-12-18T17:11:53.651Z,4.54
2022-12-18T17:14:37.946Z,4.17
2022-12-18T17:17:24.104Z,4.75
2022-12-18T17:20:09.030Z,4.49
2022-12-18T17:22:53.094Z,4.70
2022-12-18T17:25:41.249Z,4.78
2022-12-18T17:28:26.066Z,4.48
2022-12-18T17:31:14.243Z,4.52
2022-12-18T17:34:00.348Z,4.67
2022-12-18T17:36:44.405Z,5.06
2022-12-18T17:39:29.039Z,4.87
2022-12-18T17:42:15.380Z,4.80
2022-12-18T17:44:59.860Z,4.55
2022-12-18T17:47:43.797Z,4.88
2022-12-18T17:50:29.128Z,5.04
2022-12-18T17:53:13.249Z,4.39
2022-12-18T17:55:57.764Z,4.67
2022-12-18T17:58:42.364Z,4.83
2022-12-18T18:01:27.384Z,4.64
2022-12-18T18:04:11.666Z,4.68
2022-12-18T18:06:57.200Z,4.60
2022-12-18T18:09:41.210Z,4.41
2022-12-18T18:12:42.849Z,4.89
2022-12-18T18:15:26.916Z,4.53
2022-12-18T18:18:11.112Z,4.49
2022-12-18T18:20:55.744Z,4.56
2022-12-18T18:23:41.961Z,4.59
2022-12-18T18:26:29.489Z,4.82
2022-12-18T18:29:15.992Z,4.59
2022-12-18T18:32:02.678Z,4.59
2022-12-18T18:34:46.618Z,4.53
2022-12-18T18:37:30.802Z,4.38
2022-12-18T18:40:16.618Z,4.56
2022-12-18T18:43:02.676Z,4.52
2022-12-18T18:45:48.714Z,4.41
2022-12-18T18:48:35.917Z,4.12
2022-12-18T18:51:21.970Z,4.46
2022-12-18T18:54:06.291Z,4.57
2022-12-18T18:59:55.857Z,3.92
2022-12-18T19:02:39.909Z,3.78
2022-12-18T19:05:23.935Z,3.83
2022-12-18T19:08:07.960Z,4.02
2022-12-18T19:10:57.657Z,4.06
2022-12-18T19:13:42.538Z,3.80
2022-12-18T19:16:28.261Z,3.78
2022-12-18T19:19:12.355Z,3.77
2022-12-18T19:21:56.675Z,3.75
2022-12-18T19:24:40.799Z,3.84
2022-12-18T19:27:24.687Z,2.70
2022-12-18T19:30:11.950Z,3.60
2022-12-18T19:32:56.206Z,3.73
2022-12-18T19:35:41.272Z,3.59
2022-12-18T19:38:25.670Z,3.57
2022-12-18T19:41:10.035Z,3.53
2022-12-18T19:43:54.301Z,3.46
2022-12-18T19:46:42.004Z,3.21
2022-12-18T19:49:26.064Z,3.37
2022-12-18T19:52:09.791Z,3.35
2022-12-18T19:54:53.746Z,3.50
2022-12-18T19:57:37.416Z,3.32
2022-12-18T20:00:23.730Z,3.19
2022-12-18T20:03:21.241Z,3.08
2022-12-18T20:06:12.102Z,3.14
2022-12-18T20:09:00.250Z,3.25
2022-12-18T20:11:45.124Z,2.77
2022-12-18T20:14:29.265Z,3.23
2022-12-18T20:17:13.391Z,3.24
2022-12-18T20:19:59.056Z,2.91
2022-12-18T20:22:42.808Z,3.25
2022-12-18T20:25:26.640Z,3.09
2022-12-18T20:28:10.479Z,3.10
2022-12-18T20:31:01.561Z,2.61
2022-12-18T20:33:48.614Z,3.02
2022-12-18T20:36:36.431Z,2.62
2022-12-18T20:39:22.575Z,2.62
2022-12-18T20:42:06.864Z,2.56
2022-12-18T20:44:51.103Z,2.90
2022-12-18T20:47:35.011Z,2.83
2022-12-18T20:50:19.116Z,2.82
2022-12-18T20:53:05.249Z,2.89
2022-12-18T20:55:49.190Z,2.93
2022-12-18T20:58:33.195Z,2.77
2022-12-18T21:01:20.587Z,2.40
2022-12-18T21:04:04.656Z,2.63
2022-12-18T21:06:54.278Z,2.78
2022-12-18T21:09:47.522Z,2.75
2022-12-18T21:12:48.204Z,2.49
2022-12-18T21:15:39.062Z,2.86
2022-12-18T21:18:23.115Z,2.72
2022-12-18T21:21:07.392Z,2.90
2022-12-18T21:23:52.019Z,2.11
2022-12-18T21:26:44.848Z,2.73
2022-12-18T21:29:29.709Z,2.43
2022-12-18T21:32:14.186Z,2.74
2022-12-18T21:34:58.053Z,2.55
2022-12-18T21:37:41.882Z,2.63
2022-12-18T21:40:26.250Z,2.76
2022-12-18T21:43:29.628Z,2.69
2022-12-18T21:46:13.420Z,2.65
2022-12-18T21:48:57.224Z,2.59
2022-12-18T21:51:41.575Z,2.87
2022-12-18T21:54:27.209Z,1.33
2022-12-18T21:57:13.436Z,2.60
2022-12-18T21:59:58.851Z,2.20
2022-12-18T22:02:43.038Z,2.58
2022-12-18T22:05:27.117Z,2.23
2022-12-18T22:08:11.222Z,2.60
2022-12-18T22:10:55.551Z,2.33
2022-12-18T22:13:39.560Z,2.26
2022-12-18T22:16:25.166Z,2.46
2022-12-18T22:19:09.675Z,2.33
2022-12-18T22:21:54.079Z,2.08
2022-12-18T22:24:38.045Z,2.51
2022-12-18T22:27:22.060Z,2.59
2022-12-18T22:30:05.990Z,2.34
2022-12-18T22:32:51.337Z,2.25
2022-12-18T22:35:35.238Z,2.51
2022-12-18T22:38:19.807Z,2.24
2022-12-18T22:41:03.790Z,2.04
2022-12-18T22:43:47.751Z,2.10
2022-12-18T22:46:34.606Z,2.26
2022-12-18T22:49:22.269Z,2.24
2022-12-18T22:52:09.447Z,2.16
2022-12-18T22:54:54.253Z,2.38
2022-12-18T22:57:38.386Z,2.01
2022-12-18T23:00:24.859Z,1.71
2022-12-18T23:03:09.806Z,1.89
2022-12-18T23:06:02.901Z,1.41
2022-12-18T23:08:50.544Z,1.52
2022-12-18T23:11:38.422Z,1.31
2022-12-18T23:14:22.526Z,1.55
2022-12-18T23:17:06.495Z,1.30
2022-12-18T23:19:50.494Z,1.38
2022-12-18T23:22:35.856Z,1.21
2022-12-18T23:25:19.664Z,1.32
2022-12-18T23:28:03.534Z,1.29
2022-12-18T23:30:47.345Z,0.45
2022-12-18T23:33:31.145Z,1.27
2022-12-18T23:36:16.015Z,1.52
2022-12-18T23:39:02.320Z,1.42
2022-12-18T23:41:46.037Z,1.12
2022-12-18T23:44:29.854Z,1.25
2022-12-18T23:47:13.679Z,1.53
2022-12-18T23:49:57.425Z,1.60
2022-12-18T23:52:41.145Z,1.75
2022-12-18T23:55:26.329Z,1.37
2022-12-18T23:58:17.913Z,1.41
